sensor_id;sensor_type;location;lat;lon;timestamp;pressure;altitude;pressure_sealevel;temperature;humidity
51751;BME280;37827;59.558;30.096;2024-03-02T05:51:24;101490.78;;;6.79;59.72
51751;BME280;37827;59.558;30.096;2024-03-02T05:52:25;101486.28;;;6.51;59.49
51751;BME280;37827;59.558;30.096;2024-03-02T05:53:26;101488.31;;;6.33;60.43
51751;BME280;37827;59.558;30.096;2024-03-02T05:54:26;101486.59;;;6.18;60.31
51751;BME280;37827;59.558;30.096;2024-03-02T05:55:27;101495.03;;;6.12;61.08
51751;BME280;37827;59.558;30.096;2024-03-02T05:56:28;101489.94;;;6.07;60.75
51751;BME280;37827;59.558;30.096;2024-03-02T05:58:59;101491.88;;;5.75;61.85
51751;BME280;37827;59.558;30.096;2024-03-02T06:00:09;101492.41;;;5.66;61.77
51751;BME280;37827;59.558;30.096;2024-03-02T06:01:22;101483.69;;;5.47;62.13
51751;BME280;37827;59.558;30.096;2024-03-02T06:02:30;101498.56;;;5.38;62.96
51751;BME280;37827;59.558;30.096;2024-03-02T06:03:31;101496.59;;;5.26;63.08
51751;BME280;37827;59.558;30.096;2024-03-02T06:04:34;101492.56;;;5.19;63.49
51751;BME280;37827;59.558;30.096;2024-03-02T06:05:35;101502.25;;;5.21;63.27
51751;BME280;37827;59.558;30.096;2024-03-02T06:06:48;101482.66;;;5.19;65.62
51751;BME280;37827;59.558;30.096;2024-03-02T06:07:50;101505.72;;;5.23;63.32
51751;BME280;37827;59.558;30.096;2024-03-02T06:09:03;101506.63;;;5.08;63.78
51751;BME280;37827;59.558;30.096;2024-03-02T06:10:31;101499.94;;;4.84;64.95
51751;BME280;37827;59.558;30.096;2024-03-02T06:11:31;101501.59;;;4.71;64.87
51751;BME280;37827;59.558;30.096;2024-03-02T06:12:32;101500.38;;;4.76;65.78
51751;BME280;37827;59.558;30.096;2024-03-02T06:13:39;101498.28;;;4.66;65.00
51751;BME280;37827;59.558;30.096;2024-03-02T06:14:40;101503.31;;;4.72;64.92
51751;BME280;37827;59.558;30.096;2024-03-02T06:15:41;101506.06;;;4.54;65.17
51751;BME280;37827;59.558;30.096;2024-03-02T06:16:42;101506.94;;;4.55;65.86
51751;BME280;37827;59.558;30.096;2024-03-02T06:17:43;101498.97;;;4.53;65.68
51751;BME280;37827;59.558;30.096;2024-03-02T06:18:53;101501.91;;;4.49;65.66
51751;BME280;37827;59.558;30.096;2024-03-02T06:19:54;101498.34;;;4.48;65.26
51751;BME280;37827;59.558;30.096;2024-03-02T06:20:55;101508.97;;;4.34;66.15
51751;BME280;37827;59.558;30.096;2024-03-02T06:21:56;101507.25;;;4.33;66.29
51751;BME280;37827;59.558;30.096;2024-03-02T06:22:59;101501.19;;;4.45;65.70
51751;BME280;37827;59.558;30.096;2024-03-02T06:25:34;101470.28;;;4.21;65.86
51751;BME280;37827;59.558;30.096;2024-03-02T06:26:47;101509.47;;;4.25;66.42
51751;BME280;37827;59.558;30.096;2024-03-02T06:27:48;101506.75;;;4.42;67.12
51751;BME280;37827;59.558;30.096;2024-03-02T06:28:50;101500.75;;;4.37;66.49
51751;BME280;37827;59.558;30.096;2024-03-02T06:29:51;101490.50;;;4.28;66.32
51751;BME280;37827;59.558;30.096;2024-03-02T06:31:02;101508.72;;;4.39;66.33
51751;BME280;37827;59.558;30.096;2024-03-02T06:32:03;101497.13;;;4.38;65.97
51751;BME280;37827;59.558;30.096;2024-03-02T06:33:16;101498.22;;;4.34;66.10
51751;BME280;37827;59.558;30.096;2024-03-02T06:34:17;101488.44;;;4.33;66.50
51751;BME280;37827;59.558;30.096;2024-03-02T06:35:18;101504.41;;;4.36;66.49
51751;BME280;37827;59.558;30.096;2024-03-02T06:36:19;101513.44;;;4.18;67.29
51751;BME280;37827;59.558;30.096;2024-03-02T06:37:20;101508.88;;;4.03;68.05
51751;BME280;37827;59.558;30.096;2024-03-02T06:38:21;101501.13;;;4.14;67.56
51751;BME280;37827;59.558;30.096;2024-03-02T06:39:22;101509.97;;;4.16;66.93
51751;BME280;37827;59.558;30.096;2024-03-02T06:40:25;101503.44;;;4.37;66.88
51751;BME280;37827;59.558;30.096;2024-03-02T06:41:25;101498.84;;;4.39;66.65
51751;BME280;37827;59.558;30.096;2024-03-02T06:42:27;101502.31;;;4.41;66.16
51751;BME280;37827;59.558;30.096;2024-03-02T06:43:28;101496.81;;;4.27;66.65
51751;BME280;37827;59.558;30.096;2024-03-02T06:44:28;101502.31;;;4.41;66.48
51751;BME280;37827;59.558;30.096;2024-03-02T06:45:30;101499.47;;;4.44;67.33
51751;BME280;37827;59.558;30.096;2024-03-02T06:46:31;101505.34;;;4.35;66.73
51751;BME280;37827;59.558;30.096;2024-03-02T06:47:42;101509.34;;;4.44;66.54
51751;BME280;37827;59.558;30.096;2024-03-02T06:48:43;101479.50;;;4.33;67.12
51751;BME280;37827;59.558;30.096;2024-03-02T06:49:55;101507.91;;;4.70;66.46
51751;BME280;37827;59.558;30.096;2024-03-02T06:50:57;101504.16;;;4.56;66.27
51751;BME280;37827;59.558;30.096;2024-03-02T06:51:58;101500.28;;;4.62;67.15
51751;BME280;37827;59.558;30.096;2024-03-02T06:52:59;101492.75;;;4.69;65.93
51751;BME280;37827;59.558;30.096;2024-03-02T06:54:12;101510.34;;;4.74;65.40
51751;BME280;37827;59.558;30.096;2024-03-02T06:55:13;101500.47;;;4.75;65.40
51751;BME280;37827;59.558;30.096;2024-03-02T06:56:14;101508.19;;;4.81;70.71
51751;BME280;37827;59.558;30.096;2024-03-02T06:57:15;101512.97;;;4.76;65.76
51751;BME280;37827;59.558;30.096;2024-03-02T06:58:17;101498.63;;;4.60;65.46
51751;BME280;37827;59.558;30.096;2024-03-02T06:59:30;101510.56;;;4.38;65.75
51751;BME280;37827;59.558;30.096;2024-03-02T07:00:33;101506.59;;;4.61;65.93
51751;BME280;37827;59.558;30.096;2024-03-02T07:01:34;101504.50;;;4.50;65.76
51751;BME280;37827;59.558;30.096;2024-03-02T07:02:35;101503.06;;;4.61;65.26
51751;BME280;37827;59.558;30.096;2024-03-02T07:03:36;101502.09;;;4.62;65.41
51751;BME280;37827;59.558;30.096;2024-03-02T07:04:39;101501.47;;;4.41;65.64
51751;BME280;37827;59.558;30.096;2024-03-02T07:05:40;101506.13;;;4.37;65.98
51751;BME280;37827;59.558;30.096;2024-03-02T07:06:42;101507.97;;;4.52;65.65
51751;BME280;37827;59.558;30.096;2024-03-02T07:07:43;101510.94;;;4.64;65.27
51751;BME280;37827;59.558;30.096;2024-03-02T07:08:44;101512.75;;;4.47;65.35
51751;BME280;37827;59.558;30.096;2024-03-02T07:09:57;101500.75;;;4.37;66.88
51751;BME280;37827;59.558;30.096;2024-03-02T07:10:57;101513.38;;;4.68;67.45
51751;BME280;37827;59.558;30.096;2024-03-02T07:11:58;101511.91;;;4.63;66.00
51751;BME280;37827;59.558;30.096;2024-03-02T07:12:59;101509.47;;;4.74;65.37
51751;BME280;37827;59.558;30.096;2024-03-02T07:14:00;101506.63;;;4.77;64.98
51751;BME280;37827;59.558;30.096;2024-03-02T07:15:02;101507.16;;;4.83;64.84
51751;BME280;37827;59.558;30.096;2024-03-02T07:16:03;101506.44;;;4.80;64.89
51751;BME280;37827;59.558;30.096;2024-03-02T07:17:04;101509.41;;;4.91;65.23
51751;BME280;37827;59.558;30.096;2024-03-02T07:18:05;101505.06;;;4.88;64.70
51751;BME280;37827;59.558;30.096;2024-03-02T07:19:07;101511.06;;;4.78;64.97
51751;BME280;37827;59.558;30.096;2024-03-02T07:20:08;101500.41;;;4.43;66.18
51751;BME280;37827;59.558;30.096;2024-03-02T07:21:10;101508.13;;;3.83;67.30
51751;BME280;37827;59.558;30.096;2024-03-02T07:22:11;101513.97;;;3.74;68.80
51751;BME280;37827;59.558;30.096;2024-03-02T07:23:12;101505.25;;;4.04;67.92
51751;BME280;37827;59.558;30.096;2024-03-02T07:24:13;101517.97;;;4.00;68.05
51751;BME280;37827;59.558;30.096;2024-03-02T07:25:15;101528.63;;;4.02;68.03
51751;BME280;37827;59.558;30.096;2024-03-02T07:26:16;101518.38;;;3.92;67.95
51751;BME280;37827;59.558;30.096;2024-03-02T07:27:19;101519.47;;;3.54;69.48
51751;BME280;37827;59.558;30.096;2024-03-02T07:28:20;101530.53;;;3.31;70.73
51751;BME280;37827;59.558;30.096;2024-03-02T07:29:21;101500.75;;;3.52;69.97
51751;BME280;37827;59.558;30.096;2024-03-02T07:30:22;101519.78;;;4.00;68.41
51751;BME280;37827;59.558;30.096;2024-03-02T07:31:34;101529.34;;;4.05;68.04
51751;BME280;37827;59.558;30.096;2024-03-02T07:32:36;101509.22;;;3.97;67.81
51751;BME280;37827;59.558;30.096;2024-03-02T07:33:36;101525.47;;;3.59;68.96
51751;BME280;37827;59.558;30.096;2024-03-02T07:34:38;101518.53;;;3.89;68.62
51751;BME280;37827;59.558;30.096;2024-03-02T07:35:38;101523.59;;;3.61;69.51
51751;BME280;37827;59.558;30.096;2024-03-02T07:36:40;101523.91;;;3.89;68.83
51751;BME280;37827;59.558;30.096;2024-03-02T07:37:42;101516.50;;;3.77;69.34
51751;BME280;37827;59.558;30.096;2024-03-02T07:38:43;101525.09;;;4.01;68.49
51751;BME280;37827;59.558;30.096;2024-03-02T07:39:44;101524.22;;;3.83;68.67
51751;BME280;37827;59.558;30.096;2024-03-02T07:40:46;101521.69;;;3.98;68.50
51751;BME280;37827;59.558;30.096;2024-03-02T07:41:47;101518.84;;;3.83;68.91
51751;BME280;37827;59.558;30.096;2024-03-02T07:42:48;101525.94;;;3.50;69.84
51751;BME280;37827;59.558;30.096;2024-03-02T07:43:49;101525.94;;;3.50;70.73
51751;BME280;37827;59.558;30.096;2024-03-02T07:44:50;101520.91;;;3.78;69.70
51751;BME280;37827;59.558;30.096;2024-03-02T07:45:51;101518.53;;;3.55;70.11
51751;BME280;37827;59.558;30.096;2024-03-02T07:46:52;101523.72;;;3.23;71.33
51751;BME280;37827;59.558;30.096;2024-03-02T07:47:53;101520.72;;;3.47;70.94
51751;BME280;37827;59.558;30.096;2024-03-02T07:48:54;101525.47;;;3.59;70.78
51751;BME280;37827;59.558;30.096;2024-03-02T07:50:05;101523.59;;;3.61;70.25
51751;BME280;37827;59.558;30.096;2024-03-02T07:51:09;101522.31;;;3.51;70.72
51751;BME280;37827;59.558;30.096;2024-03-02T07:52:13;101519.97;;;3.45;70.67
51751;BME280;37827;59.558;30.096;2024-03-02T07:53:14;101531.94;;;3.55;70.90
51751;BME280;37827;59.558;30.096;2024-03-02T07:54:15;101514.13;;;3.71;70.06
51751;BME280;37827;59.558;30.096;2024-03-02T07:55:26;101522.16;;;3.71;70.14
51751;BME280;37827;59.558;30.096;2024-03-02T07:56:27;101516.34;;;3.46;70.96
51751;BME280;37827;59.558;30.096;2024-03-02T07:58:47;101511.75;;;3.82;69.86
51751;BME280;37827;59.558;30.096;2024-03-02T07:59:49;101496.91;;;3.58;70.21
51751;BME280;37827;59.558;30.096;2024-03-02T08:00:50;101517.59;;;3.73;70.22
51751;BME280;37827;59.558;30.096;2024-03-02T08:01:51;101511.72;;;4.00;69.28
51751;BME280;37827;59.558;30.096;2024-03-02T08:02:52;101507.94;;;3.86;69.28
51751;BME280;37827;59.558;30.096;2024-03-02T08:03:53;101503.69;;;3.65;70.28
51751;BME280;37827;59.558;30.096;2024-03-02T08:04:56;101504.47;;;3.84;69.75
51751;BME280;37827;59.558;30.096;2024-03-02T08:05:56;101497.38;;;3.66;69.92
51751;BME280;37827;59.558;30.096;2024-03-02T08:06:57;101501.47;;;3.56;70.49
51751;BME280;37827;59.558;30.096;2024-03-02T08:07:58;101504.00;;;3.59;70.37
51751;BME280;37827;59.558;30.096;2024-03-02T08:09:12;101496.91;;;3.75;69.14
51751;BME280;37827;59.558;30.096;2024-03-02T08:10:13;101500.44;;;3.76;69.69
51751;BME280;37827;59.558;30.096;2024-03-02T08:11:14;101508.13;;;3.83;69.81
51751;BME280;37827;59.558;30.096;2024-03-02T08:12:16;101496.44;;;3.33;71.50
51751;BME280;37827;59.558;30.096;2024-03-02T08:13:17;101522.72;;;3.60;71.08
51751;BME280;37827;59.558;30.096;2024-03-02T08:14:17;101523.59;;;3.61;70.95
51751;BME280;37827;59.558;30.096;2024-03-02T08:15:18;101501.31;;;3.76;70.09
51751;BME280;37827;59.558;30.096;2024-03-02T08:16:19;101491.44;;;3.77;70.09
51751;BME280;37827;59.558;30.096;2024-03-02T08:17:20;101498.00;;;3.71;70.19
51751;BME280;37827;59.558;30.096;2024-03-02T08:18:34;101500.53;;;3.91;69.83
51751;BME280;37827;59.558;30.096;2024-03-02T08:19:47;101507.47;;;3.96;69.60
51751;BME280;37827;59.558;30.096;2024-03-02T08:21:00;101507.16;;;3.67;70.43
51751;BME280;37827;59.558;30.096;2024-03-02T08:22:14;101512.47;;;3.86;70.27
51751;BME280;37827;59.558;30.096;2024-03-02T08:23:17;101511.91;;;3.62;70.66
51751;BME280;37827;59.558;30.096;2024-03-02T08:24:18;101514.75;;;3.76;70.64
51751;BME280;37827;59.558;30.096;2024-03-02T08:28:19;101508.03;;;4.35;68.57
51751;BME280;37827;59.558;30.096;2024-03-02T08:29:20;101513.03;;;4.58;67.93
51751;BME280;37827;59.558;30.096;2024-03-02T08:30:24;101512.19;;;4.74;66.80
51751;BME280;37827;59.558;30.096;2024-03-02T08:31:25;101509.66;;;4.86;67.69
51751;BME280;37827;59.558;30.096;2024-03-02T08:32:25;101516.88;;;5.02;66.34
51751;BME280;37827;59.558;30.096;2024-03-02T08:33:26;101503.50;;;5.00;66.05
51751;BME280;37827;59.558;30.096;2024-03-02T08:34:27;101512.88;;;5.09;67.77
51751;BME280;37827;59.558;30.096;2024-03-02T08:35:29;101505.59;;;5.11;65.92
51751;BME280;37827;59.558;30.096;2024-03-02T08:36:29;101509.56;;;5.19;65.38
51751;BME280;37827;59.558;30.096;2024-03-02T08:37:30;101507.44;;;5.24;65.14
51751;BME280;37827;59.558;30.096;2024-03-02T08:38:41;101510.06;;;5.26;64.73
51751;BME280;37827;59.558;30.096;2024-03-02T08:39:42;101509.69;;;5.32;64.23
51751;BME280;37827;59.558;30.096;2024-03-02T08:40:44;101506.72;;;5.37;65.51
51751;BME280;37827;59.558;30.096;2024-03-02T08:41:46;101507.06;;;5.46;64.99
51751;BME280;37827;59.558;30.096;2024-03-02T08:42:47;101510.38;;;5.36;64.41
51751;BME280;37827;59.558;30.096;2024-03-02T08:44:03;101514.88;;;5.51;64.29
51751;BME280;37827;59.558;30.096;2024-03-02T08:45:04;101515.06;;;5.48;63.95
51751;BME280;37827;59.558;30.096;2024-03-02T08:46:06;101511.97;;;5.24;65.38
51751;BME280;37827;59.558;30.096;2024-03-02T08:47:07;101516.63;;;5.36;64.54
51751;BME280;37827;59.558;30.096;2024-03-02T08:48:08;101511.44;;;5.33;64.94
51751;BME280;37827;59.558;30.096;2024-03-02T08:49:18;101510.78;;;5.14;65.35
51751;BME280;37827;59.558;30.096;2024-03-02T08:50:19;101505.53;;;5.27;64.33
51751;BME280;37827;59.558;30.096;2024-03-02T08:51:20;101507.44;;;5.24;64.61
51751;BME280;37827;59.558;30.096;2024-03-02T08:52:34;101511.13;;;5.08;64.47
51751;BME280;37827;59.558;30.096;2024-03-02T08:53:45;101481.63;;;4.90;65.01
51751;BME280;37827;59.558;30.096;2024-03-02T08:54:45;101514.69;;;5.08;65.19
51751;BME280;37827;59.558;30.096;2024-03-02T08:55:46;101515.13;;;5.16;64.95
51751;BME280;37827;59.558;30.096;2024-03-02T08:56:48;101510.88;;;5.12;65.20
51751;BME280;37827;59.558;30.096;2024-03-02T08:57:49;101517.44;;;5.22;66.15
51751;BME280;37827;59.558;30.096;2024-03-02T08:58:51;101522.66;;;5.26;65.19
51751;BME280;37827;59.558;30.096;2024-03-02T09:01:18;101521.03;;;5.07;65.40
51751;BME280;37827;59.558;30.096;2024-03-02T09:02:40;101518.25;;;5.09;65.38
51751;BME280;37827;59.558;30.096;2024-03-02T09:03:41;101515.91;;;5.18;65.21
51751;BME280;37827;59.558;30.096;2024-03-02T09:04:47;101511.75;;;5.43;66.66
51751;BME280;37827;59.558;30.096;2024-03-02T09:05:48;101504.47;;;5.45;66.41
51751;BME280;37827;59.558;30.096;2024-03-02T09:06:49;101516.78;;;5.49;64.39
51751;BME280;37827;59.558;30.096;2024-03-02T09:08:01;101516.06;;;5.61;63.76
51751;BME280;37827;59.558;30.096;2024-03-02T09:09:04;101520.44;;;5.48;65.12
51751;BME280;37827;59.558;30.096;2024-03-02T09:10:06;101519.16;;;5.69;64.16
51751;BME280;37827;59.558;30.096;2024-03-02T09:11:06;101523.50;;;5.72;63.50
51751;BME280;37827;59.558;30.096;2024-03-02T09:12:20;101522.22;;;5.63;62.98
51751;BME280;37827;59.558;30.096;2024-03-02T09:13:21;101514.16;;;5.63;63.15
51751;BME280;37827;59.558;30.096;2024-03-02T09:14:22;101506.66;;;5.68;63.25
51751;BME280;37827;59.558;30.096;2024-03-02T09:15:23;101512.22;;;5.65;63.20
51751;BME280;37827;59.558;30.096;2024-03-02T09:16:24;101513.59;;;5.72;63.13
51751;BME280;37827;59.558;30.096;2024-03-02T09:17:30;101510.19;;;5.84;62.77
51751;BME280;37827;59.558;30.096;2024-03-02T09:18:31;101510.94;;;5.86;62.46
51751;BME280;37827;59.558;30.096;2024-03-02T09:19:32;101508.59;;;5.66;63.42
51751;BME280;37827;59.558;30.096;2024-03-02T09:20:45;101524.00;;;5.78;62.89
51751;BME280;37827;59.558;30.096;2024-03-02T09:21:46;101514.09;;;5.49;63.75
51751;BME280;37827;59.558;30.096;2024-03-02T09:22:47;101504.44;;;5.61;64.66
51751;BME280;37827;59.558;30.096;2024-03-02T09:23:49;101508.22;;;5.72;63.40
51751;BME280;37827;59.558;30.096;2024-03-02T09:24:50;101504.44;;;5.61;62.88
51751;BME280;37827;59.558;30.096;2024-03-02T09:25:51;101511.47;;;5.63;63.05
51751;BME280;37827;59.558;30.096;2024-03-02T09:26:52;101519.59;;;5.77;62.84
51751;BME280;37827;59.558;30.096;2024-03-02T09:28:05;101516.88;;;5.77;62.65
51751;BME280;37827;59.558;30.096;2024-03-02T09:29:06;101516.00;;;5.47;64.57
51751;BME280;37827;59.558;30.096;2024-03-02T09:30:10;101517.47;;;5.52;63.77
51751;BME280;37827;59.558;30.096;2024-03-02T09:31:11;101518.75;;;5.61;63.09
51751;BME280;37827;59.558;30.096;2024-03-02T09:32:13;101512.56;;;5.75;62.73
51751;BME280;37827;59.558;30.096;2024-03-02T09:33:14;101514.28;;;5.76;63.96
51751;BME280;37827;59.558;30.096;2024-03-02T09:34:15;101522.47;;;5.74;63.00
51751;BME280;37827;59.558;30.096;2024-03-02T09:35:16;101529.16;;;5.67;63.18
51751;BME280;37827;59.558;30.096;2024-03-02T09:36:29;101526.28;;;5.70;63.54
51751;BME280;37827;59.558;30.096;2024-03-02T09:37:30;101515.69;;;5.67;63.40
51751;BME280;37827;59.558;30.096;2024-03-02T09:38:34;101526.13;;;5.73;62.81
51751;BME280;37827;59.558;30.096;2024-03-02T09:39:35;101504.56;;;5.73;62.64
51751;BME280;37827;59.558;30.096;2024-03-02T09:40:51;101507.94;;;5.77;62.20
51751;BME280;37827;59.558;30.096;2024-03-02T09:41:51;101523.06;;;5.79;62.67
51751;BME280;37827;59.558;30.096;2024-03-02T09:42:54;101514.59;;;5.85;62.43
51751;BME280;37827;59.558;30.096;2024-03-02T09:43:56;101518.81;;;5.75;63.43
51751;BME280;37827;59.558;30.096;2024-03-02T09:44:58;101490.50;;;5.68;62.50
51751;BME280;37827;59.558;30.096;2024-03-02T09:45:58;101522.47;;;5.74;62.58
51751;BME280;37827;59.558;30.096;2024-03-02T09:47:12;101522.53;;;5.43;62.65
51751;BME280;37827;59.558;30.096;2024-03-02T09:48:13;101517.66;;;5.49;63.31
51751;BME280;37827;59.558;30.096;2024-03-02T09:49:26;101523.38;;;5.59;63.00
51751;BME280;37827;59.558;30.096;2024-03-02T09:50:27;101507.44;;;5.70;62.39
51751;BME280;37827;59.558;30.096;2024-03-02T09:51:28;101521.72;;;5.86;62.35
51751;BME280;37827;59.558;30.096;2024-03-02T09:52:30;101519.66;;;5.92;62.29
51751;BME280;37827;59.558;30.096;2024-03-02T09:53:43;101515.03;;;5.94;62.17
51751;BME280;37827;59.558;30.096;2024-03-02T09:54:44;101517.47;;;6.12;62.33
51751;BME280;37827;59.558;30.096;2024-03-02T09:55:47;101501.97;;;6.02;61.92
51751;BME280;37827;59.558;30.096;2024-03-02T09:56:58;101511.22;;;6.12;61.79
51751;BME280;37827;59.558;30.096;2024-03-02T09:58:03;101517.41;;;6.28;62.75
51751;BME280;37827;59.558;30.096;2024-03-02T09:59:03;101519.31;;;6.26;60.89
51751;BME280;37827;59.558;30.096;2024-03-02T10:00:06;101518.66;;;6.23;61.19
51751;BME280;37827;59.558;30.096;2024-03-02T10:01:07;101517.41;;;6.28;62.69
51751;BME280;37827;59.558;30.096;2024-03-02T10:02:07;101527.03;;;6.32;62.15
51751;BME280;37827;59.558;30.096;2024-03-02T10:03:12;101522.03;;;6.26;60.90
51751;BME280;37827;59.558;30.096;2024-03-02T10:04:13;101524.53;;;6.29;60.82
51751;BME280;37827;59.558;30.096;2024-03-02T10:06:23;101527.59;;;6.23;60.61
51751;BME280;37827;59.558;30.096;2024-03-02T10:07:24;101530.13;;;6.26;61.02
51751;BME280;37827;59.558;30.096;2024-03-02T10:08:25;101524.34;;;6.32;61.95
51751;BME280;37827;59.558;30.096;2024-03-02T10:09:29;101532.16;;;6.37;62.11
51751;BME280;37827;59.558;30.096;2024-03-02T10:10:37;101520.88;;;6.44;60.68
51751;BME280;37827;59.558;30.096;2024-03-02T10:11:42;101521.66;;;6.46;60.36
51751;BME280;37827;59.558;30.096;2024-03-02T10:12:43;101513.94;;;6.40;59.97
51751;BME280;37827;59.558;30.096;2024-03-02T10:13:44;101527.03;;;6.18;60.41
51751;BME280;37827;59.558;30.096;2024-03-02T10:14:45;101527.13;;;6.31;60.71
51751;BME280;37827;59.558;30.096;2024-03-02T10:15:46;101522.03;;;6.26;60.63
51751;BME280;37827;59.558;30.096;2024-03-02T10:17:09;101528.19;;;6.28;60.68
51751;BME280;37827;59.558;30.096;2024-03-02T10:18:11;101525.22;;;6.33;61.69
51751;BME280;37827;59.558;30.096;2024-03-02T10:19:16;101530.31;;;6.23;61.23
51751;BME280;37827;59.558;30.096;2024-03-02T10:20:27;101530.31;;;6.23;61.63
51751;BME280;37827;59.558;30.096;2024-03-02T10:21:33;101531.44;;;6.19;61.39
51751;BME280;37827;59.558;30.096;2024-03-02T10:22:34;101535.88;;;6.20;60.94
51751;BME280;37827;59.558;30.096;2024-03-02T10:23:35;101532.81;;;6.26;60.51
51751;BME280;37827;59.558;30.096;2024-03-02T10:24:41;101531.84;;;6.27;60.71
51751;BME280;37827;59.558;30.096;2024-03-02T10:25:43;101523.97;;;6.38;61.11
51751;BME280;37827;59.558;30.096;2024-03-02T10:26:45;101522.41;;;6.34;61.59
51751;BME280;37827;59.558;30.096;2024-03-02T10:27:50;101527.81;;;6.48;60.17
51751;BME280;37827;59.558;30.096;2024-03-02T10:28:51;101522.41;;;6.63;64.10
51751;BME280;37827;59.558;30.096;2024-03-02T10:29:59;101528.19;;;6.71;59.76
51751;BME280;37827;59.558;30.096;2024-03-02T10:31:03;101533.59;;;6.57;59.56
51751;BME280;37827;59.558;30.096;2024-03-02T10:32:04;101525.22;;;6.61;59.60
51751;BME280;37827;59.558;30.096;2024-03-02T10:33:07;101528.59;;;6.50;59.47
